createdAt,value
2022-08-18T00:10:51.225Z,1.40
2022-08-18T00:24:51.273Z,1.60
2022-08-18T00:38:51.292Z,1.40
2022-08-18T00:52:51.329Z,1.40
2022-08-18T01:06:51.281Z,1.60
2022-08-18T01:20:51.284Z,1.30
2022-08-18T01:34:51.301Z,1.30
2022-08-18T01:48:51.272Z,2.00
2022-08-18T02:02:55.363Z,1.30
2022-08-18T02:16:51.302Z,1.40
2022-08-18T02:30:51.294Z,1.30
2022-08-18T02:44:51.313Z,1.40
2022-08-18T02:58:51.322Z,1.30
2022-08-18T03:12:51.367Z,1.60
2022-08-18T03:26:51.389Z,1.20
2022-08-18T03:40:51.363Z,1.40
2022-08-18T03:54:51.434Z,1.70
2022-08-18T04:08:51.436Z,1.50
2022-08-18T04:22:51.877Z,2.60
2022-08-18T04:36:51.498Z,1.70
2022-08-18T04:52:22.261Z,1.70
2022-08-18T05:06:51.565Z,2.30
2022-08-18T05:20:51.984Z,1.70
2022-08-18T05:35:51.615Z,1.70
2022-08-18T05:50:51.959Z,1.70
2022-08-18T06:05:51.987Z,1.40
2022-08-18T06:20:51.611Z,1.60
2022-08-18T06:35:52.110Z,2.20
2022-08-18T06:50:51.614Z,1.70
2022-08-18T07:05:52.002Z,1.70
2022-08-18T07:20:51.689Z,1.50
2022-08-18T07:35:51.630Z,1.50
2022-08-18T07:50:57.751Z,1.40
2022-08-18T08:05:51.767Z,1.40
2022-08-18T08:20:51.741Z,1.70
2022-08-18T08:36:52.244Z,2.00
2022-08-18T08:51:51.877Z,1.60
2022-08-18T09:06:51.937Z,1.50
2022-08-18T09:21:52.003Z,1.50
2022-08-18T09:36:52.055Z,2.00
2022-08-18T09:51:52.055Z,1.00
2022-08-18T10:06:52.068Z,1.30
2022-08-18T10:21:53.813Z,1.00
2022-08-18T10:36:52.077Z,1.50
2022-08-18T10:46:35.111Z,1.80
2022-08-18T10:59:28.322Z,1.20
2022-08-18T11:14:22.262Z,1.40
2022-08-18T11:29:22.378Z,0.90
2022-08-18T11:44:22.472Z,1.20
2022-08-18T12:00:23.902Z,1.00
2022-08-18T12:15:24.221Z,1.20
2022-08-18T12:45:22.775Z,1.80
2022-08-18T13:00:28.014Z,1.50
2022-08-18T13:15:22.843Z,1.00
2022-08-18T13:30:30.749Z,1.10
2022-08-18T13:45:25.478Z,1.30
2022-08-18T14:00:27.864Z,1.30
2022-08-18T14:15:22.959Z,1.40
2022-08-18T14:30:23.245Z,1.00
2022-08-18T14:45:26.669Z,1.00
2022-08-18T15:00:23.304Z,1.40
2022-08-18T15:15:24.804Z,1.60
2022-08-18T15:30:23.426Z,1.60
2022-08-18T15:45:26.471Z,0.70
2022-08-18T16:00:24.944Z,0.90
2022-08-18T16:15:23.369Z,0.50
2022-08-18T16:30:23.422Z,0.80
2022-08-18T16:45:23.428Z,1.00
2022-08-18T17:00:23.435Z,0.90
2022-08-18T17:15:23.417Z,0.70
2022-08-18T17:30:23.442Z,1.00
2022-08-18T17:43:23.414Z,0.90
2022-08-18T17:58:23.408Z,0.60
2022-08-18T18:13:23.406Z,0.90
2022-08-18T18:28:23.488Z,0.80
2022-08-18T18:43:23.555Z,0.60
2022-08-18T18:57:23.547Z,0.70
2022-08-18T19:11:23.529Z,0.60
2022-08-18T19:25:23.535Z,0.50
2022-08-18T19:39:23.593Z,0.60
2022-08-18T19:53:23.585Z,0.60
2022-08-18T20:07:23.635Z,0.80
2022-08-18T20:21:23.781Z,1.00
2022-08-18T20:35:23.857Z,1.00
2022-08-18T20:49:23.872Z,0.50
2022-08-18T21:03:23.906Z,0.70
2022-08-18T21:17:23.937Z,1.20
2022-08-18T21:31:28.787Z,0.70
2022-08-18T21:45:23.954Z,0.70
2022-08-18T21:59:23.962Z,0.60
2022-08-18T22:13:24.200Z,0.70
2022-08-18T22:27:24.543Z,0.90
2022-08-18T22:41:24.574Z,0.90
2022-08-18T22:55:25.099Z,0.90
2022-08-18T23:09:25.575Z,0.80
2022-08-18T23:23:25.480Z,0.70
2022-08-18T23:37:25.483Z,0.80
2022-08-18T23:51:25.554Z,0.80
